createdAt,value
2022-10-06T00:01:11.637Z,98089.00
2022-10-06T00:03:39.765Z,98087.00
2022-10-06T00:06:08.285Z,98077.00
2022-10-06T00:08:39.138Z,98106.00
2022-10-06T00:11:10.470Z,98091.00
2022-10-06T00:13:37.960Z,98098.00
2022-10-06T00:16:14.321Z,98090.00
2022-10-06T00:18:41.313Z,98110.00
2022-10-06T00:21:08.193Z,98107.00
2022-10-06T00:23:35.385Z,98102.00
2022-10-06T00:26:02.326Z,98107.00
2022-10-06T00:28:29.504Z,98087.00
2022-10-06T00:31:00.412Z,98104.00
2022-10-06T00:33:27.300Z,98126.00
2022-10-06T00:35:58.446Z,98136.00
2022-10-06T00:38:27.035Z,98132.00
2022-10-06T00:40:54.420Z,98142.00
2022-10-06T00:43:48.564Z,98158.00
2022-10-06T00:46:27.439Z,98181.00
2022-10-06T00:49:15.724Z,98197.00
2022-10-06T00:51:49.280Z,98203.00
2022-10-06T00:54:18.102Z,98211.00
2022-10-06T00:56:45.105Z,98211.00
2022-10-06T00:59:16.073Z,98212.00
2022-10-06T01:02:07.417Z,98224.00
2022-10-06T01:04:40.839Z,98213.00
2022-10-06T01:07:09.375Z,98226.00
2022-10-06T01:09:37.711Z,98216.00
2022-10-06T01:12:08.186Z,98218.00
2022-10-06T01:14:39.161Z,98210.00
2022-10-06T01:17:11.847Z,98205.00
2022-10-06T01:19:52.192Z,98216.00
2022-10-06T01:22:36.142Z,98217.00
2022-10-06T01:25:06.640Z,98201.00
2022-10-06T01:27:38.839Z,98226.00
2022-10-06T01:30:10.385Z,98218.00
2022-10-06T01:32:39.789Z,98227.00
2022-10-06T01:35:09.961Z,98225.00
2022-10-06T01:37:37.047Z,98229.00
2022-10-06T01:40:05.339Z,98227.00
2022-10-06T01:42:33.533Z,98229.00
2022-10-06T01:45:03.728Z,98245.00
2022-10-06T01:47:30.611Z,98228.00
2022-10-06T01:49:57.776Z,98249.00
2022-10-06T01:52:26.066Z,98245.00
2022-10-06T01:54:53.687Z,98250.00
2022-10-06T01:57:21.317Z,98263.00
2022-10-06T01:59:53.879Z,98263.00
2022-10-06T02:02:21.685Z,98266.00
2022-10-06T02:04:48.486Z,98264.00
2022-10-06T02:07:15.979Z,98272.00
2022-10-06T02:09:45.763Z,98258.00
2022-10-06T02:12:12.966Z,98271.00
2022-10-06T02:14:42.104Z,98259.00
2022-10-06T02:17:10.376Z,98270.00
2022-10-06T02:19:37.370Z,98264.00
2022-10-06T02:22:04.699Z,98279.00
2022-10-06T02:24:31.611Z,98270.00
2022-10-06T02:26:58.704Z,98281.00
2022-10-06T02:29:25.964Z,98284.00
2022-10-06T02:31:53.222Z,98292.00
2022-10-06T02:34:20.086Z,98291.00
2022-10-06T02:36:47.428Z,98274.00
2022-10-06T02:39:14.344Z,98282.00
2022-10-06T02:41:41.278Z,98291.00
2022-10-06T02:44:08.358Z,98283.00
2022-10-06T02:46:37.175Z,98291.00
2022-10-06T02:49:04.147Z,98300.00
2022-10-06T02:51:32.234Z,98317.00
2022-10-06T02:54:00.488Z,98299.00
2022-10-06T02:56:28.003Z,98296.00
2022-10-06T02:58:56.556Z,98316.00
2022-10-06T03:01:30.383Z,98325.00
2022-10-06T03:04:07.923Z,98317.00
2022-10-06T03:06:34.842Z,98309.00
2022-10-06T03:09:08.750Z,98313.00
2022-10-06T03:11:41.395Z,98327.00
2022-10-06T03:14:10.092Z,98328.00
2022-10-06T03:16:40.572Z,98335.00
2022-10-06T03:19:13.225Z,98325.00
2022-10-06T03:21:43.984Z,98346.00
2022-10-06T03:24:12.662Z,98336.00
2022-10-06T03:26:45.975Z,98353.00
2022-10-06T03:29:15.685Z,98351.00
2022-10-06T03:31:46.608Z,98360.00
2022-10-06T03:34:15.066Z,98361.00
2022-10-06T03:36:44.041Z,98363.00
2022-10-06T03:39:11.678Z,98364.00
2022-10-06T03:41:39.721Z,98369.00
2022-10-06T03:44:08.244Z,98391.00
2022-10-06T03:46:37.679Z,98385.00
2022-10-06T03:49:07.171Z,98395.00
2022-10-06T03:51:40.150Z,98395.00
2022-10-06T03:54:12.452Z,98402.00
2022-10-06T03:56:42.740Z,98413.00
2022-10-06T03:59:16.351Z,98401.00
2022-10-06T04:01:48.537Z,98422.00
2022-10-06T04:04:23.463Z,98428.00
2022-10-06T04:06:54.627Z,98436.00
2022-10-06T04:09:22.050Z,98434.00
2022-10-06T04:11:49.226Z,98424.00
2022-10-06T04:14:17.101Z,98440.00
2022-10-06T04:16:49.223Z,98448.00
2022-10-06T04:19:27.744Z,98436.00
2022-10-06T04:21:56.167Z,98439.00
2022-10-06T04:24:24.954Z,98449.00
2022-10-06T04:26:52.602Z,98468.00
2022-10-06T04:29:21.026Z,98469.00
2022-10-06T04:31:52.422Z,98485.00
2022-10-06T04:34:25.600Z,98473.00
2022-10-06T04:36:53.699Z,98480.00
2022-10-06T04:39:20.872Z,98491.00
2022-10-06T04:41:47.766Z,98494.00
2022-10-06T04:44:19.613Z,98490.00
2022-10-06T04:46:47.767Z,98490.00
2022-10-06T04:49:20.020Z,98496.00
2022-10-06T04:51:49.787Z,98498.00
2022-10-06T04:54:18.506Z,98505.00
2022-10-06T04:56:46.499Z,98515.00
2022-10-06T04:59:14.753Z,98514.00
2022-10-06T05:01:43.847Z,98502.00
2022-10-06T05:04:12.807Z,98519.00
2022-10-06T05:06:42.580Z,98510.00
2022-10-06T05:09:15.610Z,98537.00
2022-10-06T05:11:51.190Z,98529.00
2022-10-06T05:14:20.452Z,98536.00
2022-10-06T05:16:49.433Z,98544.00
2022-10-06T05:19:16.928Z,98555.00
2022-10-06T05:21:43.949Z,98556.00
2022-10-06T05:24:17.457Z,98551.00
2022-10-06T05:26:44.395Z,98552.00
2022-10-06T05:29:14.116Z,98564.00
2022-10-06T05:31:43.455Z,98559.00
2022-10-06T05:34:11.205Z,98571.00
2022-10-06T05:36:39.106Z,98563.00
2022-10-06T05:39:07.373Z,98574.00
2022-10-06T05:41:43.304Z,98562.00
2022-10-06T05:44:11.429Z,98573.00
2022-10-06T05:46:40.083Z,98579.00
2022-10-06T05:49:10.218Z,98588.00
2022-10-06T05:51:40.396Z,98582.00
2022-10-06T05:54:14.184Z,98591.00
2022-10-06T05:56:41.215Z,98612.00
2022-10-06T05:59:08.105Z,98597.00
2022-10-06T06:01:42.055Z,98595.00
2022-10-06T06:04:31.887Z,98597.00
2022-10-06T06:06:58.847Z,98611.00
2022-10-06T06:09:28.649Z,98614.00
2022-10-06T06:11:59.163Z,98620.00
2022-10-06T06:14:50.655Z,98634.00
2022-10-06T06:17:21.977Z,98628.00
2022-10-06T06:19:48.828Z,98641.00
2022-10-06T06:22:16.352Z,98650.00
2022-10-06T06:24:45.430Z,98653.00
2022-10-06T06:27:12.587Z,98656.00
2022-10-06T06:29:40.222Z,98648.00
2022-10-06T06:32:09.471Z,98653.00
2022-10-06T06:34:36.704Z,98666.00
2022-10-06T06:37:07.657Z,98665.00
2022-10-06T06:39:39.358Z,98671.00
2022-10-06T06:42:08.342Z,98678.00
2022-10-06T06:44:38.593Z,98681.00
2022-10-06T06:47:12.614Z,98688.00
2022-10-06T06:49:39.571Z,98691.00
2022-10-06T06:52:08.542Z,98693.00
2022-10-06T06:54:40.417Z,98695.00
2022-10-06T06:57:11.911Z,98697.00
2022-10-06T06:59:39.046Z,98701.00
2022-10-06T07:02:11.693Z,98706.00
2022-10-06T07:04:41.139Z,98710.00
2022-10-06T07:07:12.125Z,98720.00
2022-10-06T07:09:38.971Z,98714.00
2022-10-06T07:12:11.425Z,98720.00
2022-10-06T07:15:01.736Z,98716.00
2022-10-06T07:17:48.934Z,98736.00
2022-10-06T07:20:35.097Z,98723.00
2022-10-06T07:23:20.800Z,98750.00
2022-10-06T07:25:48.095Z,98750.00
2022-10-06T07:28:17.051Z,98740.00
2022-10-06T07:30:44.821Z,98760.00
2022-10-06T07:33:15.354Z,98751.00
2022-10-06T07:35:44.028Z,98771.00
2022-10-06T07:38:11.920Z,98761.00
2022-10-06T07:40:50.527Z,98762.00
2022-10-06T07:43:23.672Z,98776.00
2022-10-06T07:45:51.839Z,98774.00
2022-10-06T07:48:29.223Z,98773.00
2022-10-06T07:51:07.005Z,98775.00
2022-10-06T07:53:38.916Z,98781.00
2022-10-06T07:56:15.763Z,98792.00
2022-10-06T07:58:48.794Z,98804.00
2022-10-06T08:01:20.286Z,98805.00
2022-10-06T08:03:50.365Z,98799.00
2022-10-06T08:06:18.855Z,98803.00
2022-10-06T08:08:52.687Z,98813.00
2022-10-06T08:11:20.909Z,98821.00
2022-10-06T08:13:48.281Z,98820.00
2022-10-06T08:16:19.323Z,98826.00
2022-10-06T08:18:54.348Z,98831.00
2022-10-06T08:21:29.034Z,98828.00
2022-10-06T08:23:58.340Z,98836.00
2022-10-06T08:26:28.578Z,98828.00
2022-10-06T08:29:05.851Z,98834.00
2022-10-06T08:31:32.894Z,98839.00
2022-10-06T08:34:01.276Z,98834.00
2022-10-06T08:36:31.816Z,98830.00
2022-10-06T08:39:00.620Z,98840.00
2022-10-06T08:41:48.400Z,98859.00
2022-10-06T08:44:18.426Z,98843.00
2022-10-06T08:47:00.449Z,98847.00
2022-10-06T08:49:39.273Z,98850.00
2022-10-06T08:52:46.787Z,98840.00
2022-10-06T08:55:30.773Z,98849.00
2022-10-06T08:58:30.167Z,98857.00
2022-10-06T09:01:26.024Z,98861.00
2022-10-06T09:04:01.736Z,98856.00
2022-10-06T09:06:51.488Z,98866.00
2022-10-06T09:09:35.376Z,98860.00
2022-10-06T09:12:27.360Z,98865.00
2022-10-06T09:15:28.688Z,98867.00
2022-10-06T09:18:49.419Z,98857.00
2022-10-06T09:21:35.557Z,98866.00
2022-10-06T09:24:16.400Z,98864.00
2022-10-06T09:26:46.972Z,98872.00
2022-10-06T09:29:14.646Z,98872.00
2022-10-06T09:31:50.203Z,98883.00
2022-10-06T09:34:40.646Z,98871.00
2022-10-06T09:37:12.685Z,98876.00
2022-10-06T09:39:43.498Z,98879.00
2022-10-06T09:42:10.267Z,98884.00
2022-10-06T09:44:48.048Z,98879.00
2022-10-06T09:47:41.754Z,98883.00
2022-10-06T09:50:17.458Z,98885.00
2022-10-06T09:53:05.060Z,98882.00
2022-10-06T09:55:37.811Z,98898.00
2022-10-06T09:58:37.807Z,98892.00
2022-10-06T10:01:09.073Z,98891.00
2022-10-06T10:04:18.737Z,98899.00
2022-10-06T10:06:41.610Z,98894.00
2022-10-06T10:09:25.681Z,98895.00
2022-10-06T10:12:25.156Z,98908.00
2022-10-06T10:14:54.785Z,98883.00
2022-10-06T10:17:44.501Z,98916.00
2022-10-06T10:20:25.286Z,98917.00
2022-10-06T10:22:54.929Z,98902.00
2022-10-06T10:26:27.358Z,98909.00
2022-10-06T10:29:33.066Z,98920.00
2022-10-06T10:32:17.461Z,98912.00
2022-10-06T10:34:54.430Z,98913.00
2022-10-06T10:37:35.635Z,98912.00
2022-10-06T10:40:36.230Z,98922.00
2022-10-06T10:43:26.381Z,98910.00
2022-10-06T10:46:16.128Z,98900.00
2022-10-06T10:49:07.831Z,98915.00
2022-10-06T10:51:49.808Z,98899.00
2022-10-06T10:54:27.552Z,98912.00
2022-10-06T10:56:54.529Z,98909.00
2022-10-06T10:59:56.126Z,98898.00
2022-10-06T11:02:23.181Z,98912.00
2022-10-06T11:05:01.470Z,98909.00
2022-10-06T11:07:38.683Z,98909.00
2022-10-06T11:10:20.113Z,98919.00
2022-10-06T11:13:39.643Z,98907.00
2022-10-06T11:16:37.020Z,98897.00
2022-10-06T11:19:41.780Z,98912.00
2022-10-06T11:22:54.093Z,98913.00
2022-10-06T11:26:02.497Z,98901.00
2022-10-06T11:29:43.015Z,98923.00
2022-10-06T11:32:42.250Z,98914.00
2022-10-06T11:35:24.122Z,98909.00
2022-10-06T11:38:13.494Z,98901.00
2022-10-06T11:40:55.243Z,98909.00
2022-10-06T11:44:04.211Z,98913.00
2022-10-06T11:46:44.172Z,98902.00
2022-10-06T11:49:30.688Z,98908.00
2022-10-06T11:52:08.504Z,98914.00
2022-10-06T11:54:47.308Z,98900.00
2022-10-06T11:57:29.295Z,98912.00
2022-10-06T12:00:17.293Z,98902.00
2022-10-06T12:02:46.775Z,98903.00
2022-10-06T12:05:54.779Z,98909.00
2022-10-06T12:08:03.326Z,98900.00
2022-10-06T12:10:30.023Z,98903.00
2022-10-06T12:14:30.693Z,98898.00
2022-10-06T12:19:43.310Z,98897.00
2022-10-06T12:22:44.511Z,98908.00
2022-10-06T12:25:32.511Z,98910.00
2022-10-06T12:28:38.160Z,98899.00
2022-10-06T12:32:05.445Z,98898.00
2022-10-06T12:35:01.199Z,98892.00
2022-10-06T12:37:53.978Z,98875.00
2022-10-06T12:40:40.890Z,98886.00
2022-10-06T12:43:20.311Z,98879.00
2022-10-06T12:45:47.137Z,98876.00
2022-10-06T12:48:52.080Z,98870.00
2022-10-06T12:54:34.955Z,98879.00
2022-10-06T12:57:13.969Z,98872.00
2022-10-06T12:59:41.184Z,98873.00
2022-10-06T13:02:27.016Z,98884.00
2022-10-06T13:04:59.451Z,98864.00
2022-10-06T13:07:33.045Z,98881.00
2022-10-06T13:10:20.259Z,98874.00
2022-10-06T13:12:50.249Z,98883.00
2022-10-06T13:15:23.703Z,98872.00
2022-10-06T13:18:22.928Z,98872.00
2022-10-06T13:20:56.559Z,98877.00
2022-10-06T13:23:30.067Z,98891.00
2022-10-06T13:26:01.009Z,98873.00
2022-10-06T13:28:46.279Z,98884.00
2022-10-06T13:31:28.563Z,98876.00
2022-10-06T13:34:13.501Z,98865.00
2022-10-06T13:36:49.454Z,98874.00
2022-10-06T13:39:21.447Z,98870.00
2022-10-06T13:42:24.010Z,98862.00
2022-10-06T13:45:02.839Z,98872.00
2022-10-06T13:47:30.591Z,98865.00
2022-10-06T13:50:26.735Z,98877.00
2022-10-06T13:52:53.672Z,98859.00
2022-10-06T13:55:27.002Z,98876.00
2022-10-06T13:58:03.324Z,98861.00
2022-10-06T14:01:00.563Z,98861.00
2022-10-06T14:06:22.093Z,98862.00
2022-10-06T14:08:56.846Z,98872.00
2022-10-06T14:11:28.750Z,98866.00
2022-10-06T14:14:00.827Z,98860.00
2022-10-06T14:16:29.436Z,98870.00
2022-10-06T14:19:03.907Z,98867.00
2022-10-06T14:21:41.596Z,98871.00
2022-10-06T14:24:20.312Z,98864.00
2022-10-06T14:26:49.780Z,98874.00
2022-10-06T14:29:18.393Z,98867.00
2022-10-06T14:31:46.707Z,98880.00
2022-10-06T14:34:19.953Z,98873.00
2022-10-06T14:36:55.497Z,98864.00
2022-10-06T14:39:22.589Z,98869.00
2022-10-06T14:41:49.615Z,98862.00
2022-10-06T14:44:16.602Z,98863.00
2022-10-06T14:46:48.133Z,98872.00
2022-10-06T14:49:15.804Z,98857.00
2022-10-06T14:51:44.406Z,98862.00
2022-10-06T14:54:12.703Z,98867.00
2022-10-06T14:56:41.322Z,98854.00
2022-10-06T14:59:12.484Z,98850.00
2022-10-06T15:01:40.486Z,98856.00
2022-10-06T15:04:15.470Z,98859.00
2022-10-06T15:07:01.815Z,98871.00
2022-10-06T15:09:31.063Z,98862.00
2022-10-06T15:11:59.805Z,98858.00
2022-10-06T15:14:28.415Z,98866.00
2022-10-06T15:16:58.980Z,98859.00
2022-10-06T15:19:25.970Z,98858.00
2022-10-06T15:21:52.811Z,98858.00
2022-10-06T15:24:19.938Z,98867.00
2022-10-06T15:27:06.632Z,98860.00
2022-10-06T15:29:35.041Z,98855.00
2022-10-06T15:32:04.023Z,98858.00
2022-10-06T15:34:34.102Z,98863.00
2022-10-06T15:37:01.718Z,98857.00
2022-10-06T15:39:33.954Z,98850.00
2022-10-06T15:42:01.644Z,98849.00
2022-10-06T15:44:34.332Z,98852.00
2022-10-06T15:47:01.845Z,98859.00
2022-10-06T15:49:30.290Z,98849.00
2022-10-06T15:52:03.201Z,98851.00
2022-10-06T15:54:33.967Z,98847.00
2022-10-06T15:57:04.048Z,98854.00
2022-10-06T15:59:33.993Z,98852.00
2022-10-06T16:02:14.416Z,98847.00
2022-10-06T16:04:42.530Z,98851.00
2022-10-06T16:07:18.648Z,98858.00
2022-10-06T16:09:49.260Z,98866.00
2022-10-06T16:12:23.086Z,98854.00
2022-10-06T16:14:49.933Z,98851.00
2022-10-06T16:17:17.866Z,98850.00
2022-10-06T16:19:45.479Z,98844.00
2022-10-06T16:22:18.045Z,98857.00
2022-10-06T16:24:45.097Z,98855.00
2022-10-06T16:27:14.224Z,98845.00
2022-10-06T16:29:41.187Z,98841.00
2022-10-06T16:32:08.126Z,98846.00
2022-10-06T16:34:35.042Z,98831.00
2022-10-06T16:37:01.825Z,98839.00
2022-10-06T16:39:28.747Z,98847.00
2022-10-06T16:41:55.683Z,98852.00
2022-10-06T16:44:22.754Z,98845.00
2022-10-06T16:46:49.710Z,98850.00
2022-10-06T16:49:16.727Z,98840.00
2022-10-06T16:51:48.261Z,98865.00
2022-10-06T16:54:19.085Z,98856.00
2022-10-06T16:56:51.975Z,98853.00
2022-10-06T16:59:25.760Z,98861.00
2022-10-06T17:01:53.042Z,98858.00
2022-10-06T17:04:23.497Z,98851.00
2022-10-06T17:06:56.749Z,98857.00
2022-10-06T17:09:26.477Z,98876.00
2022-10-06T17:11:58.255Z,98868.00
2022-10-06T17:14:26.566Z,98865.00
2022-10-06T17:16:56.113Z,98876.00
2022-10-06T17:19:26.826Z,98867.00
2022-10-06T17:21:58.642Z,98871.00
2022-10-06T17:24:29.074Z,98864.00
2022-10-06T17:26:57.709Z,98858.00
2022-10-06T17:29:25.762Z,98884.00
2022-10-06T17:31:58.501Z,98868.00
2022-10-06T17:34:30.697Z,98871.00
2022-10-06T17:36:59.254Z,98883.00
2022-10-06T17:39:26.083Z,98871.00
2022-10-06T17:41:54.422Z,98881.00
2022-10-06T17:44:26.259Z,98878.00
2022-10-06T17:46:59.016Z,98871.00
2022-10-06T17:49:27.325Z,98876.00
2022-10-06T17:51:55.162Z,98858.00
2022-10-06T17:54:25.210Z,98867.00
2022-10-06T17:56:55.651Z,98876.00
2022-10-06T17:59:31.471Z,98876.00
2022-10-06T18:02:07.077Z,98865.00
2022-10-06T18:04:35.806Z,98876.00
2022-10-06T18:07:03.153Z,98888.00
2022-10-06T18:09:30.007Z,98879.00
2022-10-06T18:11:58.497Z,98887.00
2022-10-06T18:14:30.429Z,98875.00
2022-10-06T18:17:00.850Z,98875.00
2022-10-06T18:19:34.335Z,98870.00
2022-10-06T18:22:10.317Z,98877.00
2022-10-06T18:24:38.875Z,98889.00
2022-10-06T18:27:06.360Z,98882.00
2022-10-06T18:29:36.667Z,98868.00
2022-10-06T18:32:58.981Z,98874.00
2022-10-06T18:37:39.581Z,98876.00
2022-10-06T18:40:09.595Z,98869.00
2022-10-06T18:42:36.662Z,98885.00
2022-10-06T18:45:22.570Z,98886.00
2022-10-06T18:48:07.982Z,98882.00
2022-10-06T18:50:35.510Z,98872.00
2022-10-06T18:53:04.175Z,98881.00
2022-10-06T18:55:31.970Z,98872.00
2022-10-06T18:57:59.035Z,98877.00
2022-10-06T19:00:26.096Z,98886.00
2022-10-06T19:02:55.256Z,98882.00
2022-10-06T19:05:22.780Z,98890.00
2022-10-06T19:07:52.129Z,98881.00
2022-10-06T19:10:19.574Z,98884.00
2022-10-06T19:12:48.101Z,98861.00
2022-10-06T19:15:19.979Z,98885.00
2022-10-06T19:17:48.255Z,98897.00
2022-10-06T19:20:15.276Z,98905.00
2022-10-06T19:22:43.300Z,98899.00
2022-10-06T19:25:10.223Z,98869.00
2022-10-06T19:27:37.281Z,98882.00
2022-10-06T19:30:04.842Z,98893.00
2022-10-06T19:32:34.855Z,98903.00
2022-10-06T19:35:05.204Z,98898.00
2022-10-06T19:37:34.822Z,98883.00
2022-10-06T19:40:01.748Z,98892.00
2022-10-06T19:42:47.217Z,98894.00
2022-10-06T19:45:15.888Z,98903.00
2022-10-06T19:47:44.857Z,98898.00
2022-10-06T19:50:12.976Z,98899.00
2022-10-06T19:52:41.944Z,98888.00
2022-10-06T19:55:08.827Z,98890.00
2022-10-06T19:57:35.739Z,98891.00
2022-10-06T20:00:04.484Z,98906.00
2022-10-06T20:02:42.396Z,98899.00
2022-10-06T20:05:15.412Z,98908.00
2022-10-06T20:07:45.790Z,98914.00
2022-10-06T20:10:14.148Z,98906.00
2022-10-06T20:12:41.616Z,98899.00
2022-10-06T20:15:10.453Z,98902.00
2022-10-06T20:17:37.745Z,98902.00
2022-10-06T20:20:05.077Z,98886.00
2022-10-06T20:22:31.932Z,98891.00
2022-10-06T20:24:58.792Z,98895.00
2022-10-06T20:27:25.619Z,98906.00
2022-10-06T20:29:53.278Z,98909.00
2022-10-06T20:32:20.133Z,98894.00
2022-10-06T20:34:47.151Z,98921.00
2022-10-06T20:37:13.956Z,98913.00
2022-10-06T20:39:59.426Z,98893.00
2022-10-06T20:42:27.883Z,98917.00
2022-10-06T20:44:54.732Z,98892.00
2022-10-06T20:47:21.578Z,98916.00
2022-10-06T20:49:54.193Z,98900.00
2022-10-06T20:52:23.108Z,98911.00
2022-10-06T20:54:51.078Z,98904.00
2022-10-06T20:57:17.987Z,98908.00
2022-10-06T20:59:45.986Z,98903.00
2022-10-06T21:02:13.493Z,98892.00
2022-10-06T21:04:43.720Z,98890.00
2022-10-06T21:07:11.303Z,98879.00
2022-10-06T21:09:38.339Z,98902.00
2022-10-06T21:12:05.356Z,98893.00
2022-10-06T21:14:34.240Z,98886.00
2022-10-06T21:17:01.818Z,98892.00
2022-10-06T21:19:30.257Z,98881.00
2022-10-06T21:21:57.376Z,98891.00
2022-10-06T21:24:24.394Z,98894.00
2022-10-06T21:26:52.792Z,98881.00
2022-10-06T21:29:20.883Z,98893.00
2022-10-06T21:31:48.369Z,98881.00
2022-10-06T21:34:15.421Z,98880.00
2022-10-06T21:36:43.537Z,98883.00
2022-10-06T21:39:11.853Z,98873.00
2022-10-06T21:41:40.163Z,98866.00
2022-10-06T21:44:13.545Z,98871.00
2022-10-06T21:46:46.643Z,98878.00
2022-10-06T21:49:17.443Z,98875.00
2022-10-06T21:51:47.961Z,98872.00
2022-10-06T21:54:15.988Z,98876.00
2022-10-06T21:56:43.531Z,98864.00
2022-10-06T21:59:11.739Z,98866.00
2022-10-06T22:01:42.823Z,98860.00
2022-10-06T22:04:12.783Z,98867.00
2022-10-06T22:06:40.259Z,98865.00
2022-10-06T22:09:11.838Z,98851.00
2022-10-06T22:11:40.576Z,98857.00
2022-10-06T22:14:12.457Z,98832.00
2022-10-06T22:16:40.377Z,98854.00
2022-10-06T22:19:11.059Z,98861.00
2022-10-06T22:21:42.296Z,98857.00
2022-10-06T22:24:19.772Z,98850.00
2022-10-06T22:26:49.023Z,98834.00
2022-10-06T22:29:18.784Z,98857.00
2022-10-06T22:31:47.896Z,98850.00
2022-10-06T22:34:18.906Z,98837.00
2022-10-06T22:36:46.122Z,98845.00
2022-10-06T22:39:13.133Z,98838.00
2022-10-06T22:41:40.292Z,98836.00
2022-10-06T22:44:07.447Z,98837.00
2022-10-06T22:46:37.453Z,98819.00
2022-10-06T22:49:05.697Z,98826.00
2022-10-06T22:51:33.353Z,98822.00
2022-10-06T22:54:01.110Z,98825.00
2022-10-06T22:56:31.811Z,98811.00
2022-10-06T22:59:00.548Z,98814.00
2022-10-06T23:01:29.315Z,98826.00
2022-10-06T23:03:57.364Z,98819.00
2022-10-06T23:06:24.878Z,98812.00
2022-10-06T23:08:52.516Z,98792.00
2022-10-06T23:11:21.766Z,98803.00
2022-10-06T23:13:50.652Z,98801.00
2022-10-06T23:16:19.967Z,98802.00
2022-10-06T23:18:47.967Z,98793.00
2022-10-06T23:21:27.223Z,98799.00
2022-10-06T23:23:59.230Z,98778.00
2022-10-06T23:26:27.058Z,98784.00
2022-10-06T23:29:00.667Z,98783.00
2022-10-06T23:31:29.321Z,98786.00
2022-10-06T23:33:56.867Z,98797.00
2022-10-06T23:36:24.442Z,98776.00
2022-10-06T23:38:51.646Z,98771.00
2022-10-06T23:41:19.800Z,98765.00
2022-10-06T23:43:46.929Z,98763.00
2022-10-06T23:46:14.916Z,98770.00
2022-10-06T23:48:42.493Z,98761.00
2022-10-06T23:51:15.629Z,98778.00
2022-10-06T23:53:43.138Z,98763.00
2022-10-06T23:56:10.795Z,98760.00
2022-10-06T23:58:38.499Z,98752.00
